KGRB/GRB METAR and TAF weather

Enter ICAO airport designator
Station Type Date Time Source
KGRB METAR 2019/04/25 15:53 UTC NOAA

KGRB 251553Z 26006KT 10SM -RA FEW050 OVC095 13/08 A2978 RMK AO2 RAB21 SLP086 P0000 T01280083


Station Type Date Time Source
KGRB Decoded METAR 2019/04/25 15:53 UTC NOAA

AUSTIN STRAUBEL INTERNATIONAL AIRPORT , WI, United States (KGRB) 44-29N 088-08W 205M
Apr 25, 2019 - 11:53 AM EDT / 2019.04.25 1553 UTC
Wind: from the W (260 degrees) at 7 MPH (6 KT):0
Visibility: 10 mile(s):0
Sky conditions: overcast
Weather: light rain
Precipitation last hour: A trace
Temperature: 55.0 F (12.8 C)
Dew Point: 46.9 F (8.3 C)
Relative Humidity: 74%
Pressure (altimeter): 29.78 in. Hg (1008 hPa)
ob: KGRB 251553Z 26006KT 10SM -RA FEW050 OVC095 13/08 A2978 RMK AO2 RAB21 SLP086 P0000 T01280083
cycle: 16

Station Type Date Time Source
KGRB TAF 2019/04/25 12:36 UTC NOAA

TAF KGRB 251135Z 2512/2612 21004KT P6SM SCT080 BKN120
FM251500 23005KT P6SM SCT035 OVC070
FM251700 29006KT P6SM -SHRA BKN035 OVC050
TEMPO 2517/2521 5SM -SHRA
FM252300 36004KT P6SM -SHRA BKN060
FM260100 31004KT P6SM SCT200

Example: see airport list